Meteorological Aerodrome Report (METAR)

METAR

Data at: 1850 UTC 15 Jul 2020

METAR for:NVSC (Sola/Vanua Lava Arpt, --, NV)
Text:NVSC 151800Z 00000KT 9999 FEW020 23/22 Q1010
Temperature: 23.0°C ( 73°F)
Dewpoint: 22.0°C ( 72°F) [RH = 94%]
Pressure (altimeter):29.82 inches Hg (1010.0 mb)
Winds:calm
Visibility:6 or more sm (10+ km)
Ceiling:at least 12,000 feet AGL
Clouds: few clouds at 2000 feet AGL

METAR

Data at: 1850 UTC 15 Jul 2020

METAR for:NVSG (Longana Arpt, --, NV)
Text:NVSG 151800Z AUTO 00000KT //// // NCD 18/17 Q1010
Temperature: 18.0°C ( 64°F)
Dewpoint: 17.0°C ( 63°F) [RH = 94%]
Pressure (altimeter):29.82 inches Hg (1010.0 mb)
Winds:calm
Ceiling:at least 12,000 feet AGL
Clouds:sky clear below 12,000 feet AGL

METAR

Data at: 1850 UTC 15 Jul 2020

METAR for:NVSS (Santo/Pekoa Intl, --, NV)
Text:NVSS 151800Z 00000KT 9999 FEW025 21/20 Q1009
Temperature: 21.0°C ( 70°F)
Dewpoint: 20.0°C ( 68°F) [RH = 94%]
Pressure (altimeter):29.79 inches Hg (1009.0 mb)
Winds:calm
Visibility:6 or more sm (10+ km)
Ceiling:at least 12,000 feet AGL
Clouds: few clouds at 2500 feet AGL

METAR

Data at: 1850 UTC 15 Jul 2020

METAR for:NVSL (Malekula/Lamap, --, NV)
Text:No data found

METAR

Data at: 1850 UTC 15 Jul 2020

METAR for:NVSP (Norsup Arpt, --, NV)
Text:No data found

METAR

Data at: 1850 UTC 15 Jul 2020

METAR for:NVVV (Efate/Bauerfield Int, --, NV)
Text:NVVV 151800Z 11002KT 9999 FEW020 17/17 Q1010
Temperature: 17.0°C ( 63°F)
Dewpoint: 17.0°C ( 63°F) [RH = 100%]
Pressure (altimeter):29.82 inches Hg (1010.0 mb)
Winds:from the ESE (110 degrees) at 2 MPH (2 knots; 1.0 m/s)
Visibility:6 or more sm (10+ km)
Ceiling:at least 12,000 feet AGL
Clouds: few clouds at 2000 feet AGL

METAR

Data at: 1850 UTC 15 Jul 2020

METAR for:NVVW (Tanna Arpt, --, NV)
Text:NVVW 151800Z 00000KT 9999 FEW025 20/20 Q1010
Temperature: 20.0°C ( 68°F)
Dewpoint: 20.0°C ( 68°F) [RH = 100%]
Pressure (altimeter):29.82 inches Hg (1010.0 mb)
Winds:calm
Visibility:6 or more sm (10+ km)
Ceiling:at least 12,000 feet AGL
Clouds: few clouds at 2500 feet AGL

METAR

Data at: 1850 UTC 15 Jul 2020

METAR for:NVVA (Aneityum/Mystery Isl, --, NV)
Text:NVVA 151800Z 09003KT 9999 SCT025 19/18 Q1010
Temperature: 19.0°C ( 66°F)
Dewpoint: 18.0°C ( 64°F) [RH = 94%]
Pressure (altimeter):29.82 inches Hg (1010.0 mb)
Winds:from the E (90 degrees) at 3 MPH (3 knots; 1.5 m/s)
Visibility:6 or more sm (10+ km)
Ceiling:at least 12,000 feet AGL
Clouds: scattered clouds at 2500 feet AGL

METAR

Data at: 1850 UTC 15 Jul 2020

NVVV 151800Z 11002KT 9999 FEW020 17/17 Q1010
NVSC 151800Z 00000KT 9999 FEW020 23/22 Q1010
NVSG 151800Z AUTO 00000KT //// // NCD 18/17 Q1010
NVSS 151800Z 00000KT 9999 FEW025 21/20 Q1009
No Data available for NVSL
No Data available for NVSP
NVVW 151800Z 00000KT 9999 FEW025 20/20 Q1010
NVVA 151800Z 09003KT 9999 SCT025 19/18 Q1010